sensor_id;sensor_type;location;lat;lon;timestamp;temperature;humidity
39925;DHT22;25592;49.986;11.618;2024-01-10T00:01:16;-1.40;85.40
39925;DHT22;25592;49.986;11.618;2024-01-10T00:04:01;-1.40;87.20
39925;DHT22;25592;49.986;11.618;2024-01-10T00:06:48;-1.40;85.70
39925;DHT22;25592;49.986;11.618;2024-01-10T00:09:33;-1.90;84.00
39925;DHT22;25592;49.986;11.618;2024-01-10T00:12:19;-1.90;86.40
39925;DHT22;25592;49.986;11.618;2024-01-10T00:15:05;-1.80;86.80
39925;DHT22;25592;49.986;11.618;2024-01-10T00:17:51;-1.80;85.00
39925;DHT22;25592;49.986;11.618;2024-01-10T00:20:37;-2.00;87.30
39925;DHT22;25592;49.986;11.618;2024-01-10T00:23:22;-1.90;88.50
39925;DHT22;25592;49.986;11.618;2024-01-10T00:26:08;-1.70;88.60
39925;DHT22;25592;49.986;11.618;2024-01-10T00:28:53;-1.60;90.00
39925;DHT22;25592;49.986;11.618;2024-01-10T00:31:48;-1.60;86.80
39925;DHT22;25592;49.986;11.618;2024-01-10T00:34:33;-1.80;85.20
39925;DHT22;25592;49.986;11.618;2024-01-10T00:37:19;-1.70;87.90
39925;DHT22;25592;49.986;11.618;2024-01-10T00:40:05;-1.60;88.30
39925;DHT22;25592;49.986;11.618;2024-01-10T00:42:50;-1.60;89.10
39925;DHT22;25592;49.986;11.618;2024-01-10T00:45:36;-1.50;88.00
39925;DHT22;25592;49.986;11.618;2024-01-10T00:48:21;-1.70;86.50
39925;DHT22;25592;49.986;11.618;2024-01-10T00:51:06;-1.70;87.60
39925;DHT22;25592;49.986;11.618;2024-01-10T00:53:53;-1.70;88.20
39925;DHT22;25592;49.986;11.618;2024-01-10T00:56:39;-1.60;88.60
39925;DHT22;25592;49.986;11.618;2024-01-10T00:59:24;-1.60;87.40
39925;DHT22;25592;49.986;11.618;2024-01-10T01:02:10;-1.60;87.50
39925;DHT22;25592;49.986;11.618;2024-01-10T01:04:55;-1.50;88.10
39925;DHT22;25592;49.986;11.618;2024-01-10T01:07:40;-1.50;84.70
39925;DHT22;25592;49.986;11.618;2024-01-10T01:10:26;-1.50;86.10
39925;DHT22;25592;49.986;11.618;2024-01-10T01:13:11;-1.40;88.20
39925;DHT22;25592;49.986;11.618;2024-01-10T01:15:57;-1.40;81.80
39925;DHT22;25592;49.986;11.618;2024-01-10T01:18:42;-1.40;82.50
39925;DHT22;25592;49.986;11.618;2024-01-10T01:21:30;-1.50;83.90
39925;DHT22;25592;49.986;11.618;2024-01-10T01:24:16;-1.40;81.70
39925;DHT22;25592;49.986;11.618;2024-01-10T01:27:02;-1.40;83.00
39925;DHT22;25592;49.986;11.618;2024-01-10T01:29:48;-1.40;82.20
39925;DHT22;25592;49.986;11.618;2024-01-10T01:32:33;-1.30;83.50
39925;DHT22;25592;49.986;11.618;2024-01-10T01:35:19;-1.20;83.20
39925;DHT22;25592;49.986;11.618;2024-01-10T01:38:07;-1.20;82.60
39925;DHT22;25592;49.986;11.618;2024-01-10T01:40:53;-1.40;82.40
39925;DHT22;25592;49.986;11.618;2024-01-10T01:43:38;-1.50;83.10
39925;DHT22;25592;49.986;11.618;2024-01-10T01:46:23;-1.50;82.70
39925;DHT22;25592;49.986;11.618;2024-01-10T01:49:10;-1.40;82.60
39925;DHT22;25592;49.986;11.618;2024-01-10T01:51:56;-1.30;82.40
39925;DHT22;25592;49.986;11.618;2024-01-10T01:54:41;-1.20;82.90
39925;DHT22;25592;49.986;11.618;2024-01-10T01:57:27;-1.10;83.20
39925;DHT22;25592;49.986;11.618;2024-01-10T02:00:13;-1.00;83.70
39925;DHT22;25592;49.986;11.618;2024-01-10T02:02:59;-1.00;84.60
39925;DHT22;25592;49.986;11.618;2024-01-10T02:05:46;-0.80;84.10
39925;DHT22;25592;49.986;11.618;2024-01-10T02:08:33;-0.90;85.60
39925;DHT22;25592;49.986;11.618;2024-01-10T02:11:19;-0.80;84.20
39925;DHT22;25592;49.986;11.618;2024-01-10T02:14:06;-0.80;84.90
39925;DHT22;25592;49.986;11.618;2024-01-10T02:16:52;-0.80;86.30
39925;DHT22;25592;49.986;11.618;2024-01-10T02:19:39;-0.80;85.40
39925;DHT22;25592;49.986;11.618;2024-01-10T02:22:24;-0.70;85.50
39925;DHT22;25592;49.986;11.618;2024-01-10T02:25:10;-0.70;84.90
39925;DHT22;25592;49.986;11.618;2024-01-10T02:27:56;-0.80;84.70
39925;DHT22;25592;49.986;11.618;2024-01-10T02:30:41;-0.90;84.10
39925;DHT22;25592;49.986;11.618;2024-01-10T02:33:27;-0.80;86.30
39925;DHT22;25592;49.986;11.618;2024-01-10T02:36:13;-0.80;85.80
39925;DHT22;25592;49.986;11.618;2024-01-10T02:38:58;-0.70;87.50
39925;DHT22;25592;49.986;11.618;2024-01-10T02:41:44;-0.70;87.00
39925;DHT22;25592;49.986;11.618;2024-01-10T02:44:29;-0.70;86.90
39925;DHT22;25592;49.986;11.618;2024-01-10T02:47:15;-0.70;86.90
39925;DHT22;25592;49.986;11.618;2024-01-10T02:50:00;-0.80;87.50
39925;DHT22;25592;49.986;11.618;2024-01-10T02:52:47;-0.80;87.70
39925;DHT22;25592;49.986;11.618;2024-01-10T02:55:32;-0.80;88.00
39925;DHT22;25592;49.986;11.618;2024-01-10T02:58:17;-0.80;87.90
39925;DHT22;25592;49.986;11.618;2024-01-10T03:01:03;-0.80;86.60
39925;DHT22;25592;49.986;11.618;2024-01-10T03:03:48;-0.80;86.90
39925;DHT22;25592;49.986;11.618;2024-01-10T03:06:34;-0.80;86.90
39925;DHT22;25592;49.986;11.618;2024-01-10T03:09:19;-0.70;87.70
39925;DHT22;25592;49.986;11.618;2024-01-10T03:12:05;-0.70;86.60
39925;DHT22;25592;49.986;11.618;2024-01-10T03:14:50;-0.70;88.40
39925;DHT22;25592;49.986;11.618;2024-01-10T03:17:36;-0.70;87.00
39925;DHT22;25592;49.986;11.618;2024-01-10T03:20:21;-0.70;88.10
39925;DHT22;25592;49.986;11.618;2024-01-10T03:23:06;-0.70;89.00
39925;DHT22;25592;49.986;11.618;2024-01-10T03:25:52;-0.70;89.60
39925;DHT22;25592;49.986;11.618;2024-01-10T03:28:37;-0.60;90.00
39925;DHT22;25592;49.986;11.618;2024-01-10T03:31:23;-0.60;89.80
39925;DHT22;25592;49.986;11.618;2024-01-10T03:34:08;-0.60;89.10
39925;DHT22;25592;49.986;11.618;2024-01-10T03:36:54;-0.60;90.00
39925;DHT22;25592;49.986;11.618;2024-01-10T03:39:39;-0.60;89.90
39925;DHT22;25592;49.986;11.618;2024-01-10T03:42:24;-0.70;88.20
39925;DHT22;25592;49.986;11.618;2024-01-10T03:45:10;-0.70;89.50
39925;DHT22;25592;49.986;11.618;2024-01-10T03:47:55;-0.80;88.50
39925;DHT22;25592;49.986;11.618;2024-01-10T03:50:41;-0.80;89.10
39925;DHT22;25592;49.986;11.618;2024-01-10T03:53:27;-0.80;90.10
39925;DHT22;25592;49.986;11.618;2024-01-10T03:56:12;-0.70;88.60
39925;DHT22;25592;49.986;11.618;2024-01-10T03:58:58;-0.80;87.40
39925;DHT22;25592;49.986;11.618;2024-01-10T04:01:44;-0.70;89.50
39925;DHT22;25592;49.986;11.618;2024-01-10T04:04:29;-0.70;89.40
39925;DHT22;25592;49.986;11.618;2024-01-10T04:07:15;-0.70;88.70
39925;DHT22;25592;49.986;11.618;2024-01-10T04:10:00;-0.80;88.30
39925;DHT22;25592;49.986;11.618;2024-01-10T04:12:46;-0.80;89.50
39925;DHT22;25592;49.986;11.618;2024-01-10T04:15:31;-0.70;88.80
39925;DHT22;25592;49.986;11.618;2024-01-10T04:18:17;-0.70;89.50
39925;DHT22;25592;49.986;11.618;2024-01-10T04:21:02;-0.70;90.00
39925;DHT22;25592;49.986;11.618;2024-01-10T04:23:48;-0.70;90.00
39925;DHT22;25592;49.986;11.618;2024-01-10T04:26:33;-0.70;90.20
39925;DHT22;25592;49.986;11.618;2024-01-10T04:29:19;-0.70;90.10
39925;DHT22;25592;49.986;11.618;2024-01-10T04:32:05;-0.70;90.30
39925;DHT22;25592;49.986;11.618;2024-01-10T04:34:50;-0.80;89.60
39925;DHT22;25592;49.986;11.618;2024-01-10T04:37:35;-0.80;90.30
39925;DHT22;25592;49.986;11.618;2024-01-10T04:40:21;-0.90;90.50
39925;DHT22;25592;49.986;11.618;2024-01-10T04:43:06;-0.90;90.70
39925;DHT22;25592;49.986;11.618;2024-01-10T04:45:52;-0.90;90.60
39925;DHT22;25592;49.986;11.618;2024-01-10T04:48:37;-0.90;90.70
39925;DHT22;25592;49.986;11.618;2024-01-10T04:51:23;-0.90;90.90
39925;DHT22;25592;49.986;11.618;2024-01-10T04:54:08;-0.90;91.00
39925;DHT22;25592;49.986;11.618;2024-01-10T04:56:53;-0.90;90.90
39925;DHT22;25592;49.986;11.618;2024-01-10T04:59:39;-0.90;91.00
39925;DHT22;25592;49.986;11.618;2024-01-10T05:02:25;-0.90;91.10
39925;DHT22;25592;49.986;11.618;2024-01-10T05:05:11;-0.90;91.10
39925;DHT22;25592;49.986;11.618;2024-01-10T05:07:56;-0.90;90.80
39925;DHT22;25592;49.986;11.618;2024-01-10T05:10:41;-1.00;90.80
39925;DHT22;25592;49.986;11.618;2024-01-10T05:13:27;-1.00;91.30
39925;DHT22;25592;49.986;11.618;2024-01-10T05:16:12;-1.00;91.10
39925;DHT22;25592;49.986;11.618;2024-01-10T05:19:00;-0.90;91.30
39925;DHT22;25592;49.986;11.618;2024-01-10T05:21:48;-1.00;91.40
39925;DHT22;25592;49.986;11.618;2024-01-10T05:24:35;-1.00;91.10
39925;DHT22;25592;49.986;11.618;2024-01-10T05:27:20;-1.00;91.10
39925;DHT22;25592;49.986;11.618;2024-01-10T05:30:07;-1.10;91.00
39925;DHT22;25592;49.986;11.618;2024-01-10T05:32:53;-1.10;91.20
39925;DHT22;25592;49.986;11.618;2024-01-10T05:35:38;-1.00;91.40
39925;DHT22;25592;49.986;11.618;2024-01-10T05:38:24;-1.00;91.50
39925;DHT22;25592;49.986;11.618;2024-01-10T05:41:09;-1.10;91.30
39925;DHT22;25592;49.986;11.618;2024-01-10T05:43:55;-1.30;90.60
39925;DHT22;25592;49.986;11.618;2024-01-10T05:46:42;-1.20;91.50
39925;DHT22;25592;49.986;11.618;2024-01-10T05:49:28;-1.20;91.70
39925;DHT22;25592;49.986;11.618;2024-01-10T05:52:13;-1.20;91.50
39925;DHT22;25592;49.986;11.618;2024-01-10T05:54:59;-1.20;91.80
39925;DHT22;25592;49.986;11.618;2024-01-10T05:57:46;-1.20;91.70
39925;DHT22;25592;49.986;11.618;2024-01-10T06:00:32;-1.20;91.90
39925;DHT22;25592;49.986;11.618;2024-01-10T06:03:17;-1.20;91.70
39925;DHT22;25592;49.986;11.618;2024-01-10T06:06:04;-1.30;91.30
39925;DHT22;25592;49.986;11.618;2024-01-10T06:08:50;-1.30;91.80
39925;DHT22;25592;49.986;11.618;2024-01-10T06:11:40;-1.20;92.00
39925;DHT22;25592;49.986;11.618;2024-01-10T06:14:26;-1.20;93.10
39925;DHT22;25592;49.986;11.618;2024-01-10T06:17:12;-1.00;94.20
39925;DHT22;25592;49.986;11.618;2024-01-10T06:19:57;-1.00;93.20
39925;DHT22;25592;49.986;11.618;2024-01-10T06:22:45;-1.00;93.10
39925;DHT22;25592;49.986;11.618;2024-01-10T06:25:32;-1.00;94.40
39925;DHT22;25592;49.986;11.618;2024-01-10T06:28:17;-0.80;97.20
39925;DHT22;25592;49.986;11.618;2024-01-10T06:31:03;-0.70;94.40
39925;DHT22;25592;49.986;11.618;2024-01-10T06:33:49;-0.80;93.40
39925;DHT22;25592;49.986;11.618;2024-01-10T06:36:35;-0.80;93.90
39925;DHT22;25592;49.986;11.618;2024-01-10T06:39:20;-0.90;94.40
39925;DHT22;25592;49.986;11.618;2024-01-10T06:42:06;-1.00;93.40
39925;DHT22;25592;49.986;11.618;2024-01-10T06:44:53;-1.00;94.80
39925;DHT22;25592;49.986;11.618;2024-01-10T06:47:39;-1.00;94.20
39925;DHT22;25592;49.986;11.618;2024-01-10T06:50:26;-1.10;93.50
39925;DHT22;25592;49.986;11.618;2024-01-10T06:53:11;-1.00;94.30
39925;DHT22;25592;49.986;11.618;2024-01-10T06:55:57;-1.00;94.00
39925;DHT22;25592;49.986;11.618;2024-01-10T06:58:42;-1.00;94.30
39925;DHT22;25592;49.986;11.618;2024-01-10T07:01:29;-1.10;94.10
39925;DHT22;25592;49.986;11.618;2024-01-10T07:04:15;-1.00;93.80
39925;DHT22;25592;49.986;11.618;2024-01-10T07:07:06;-1.10;92.90
39925;DHT22;25592;49.986;11.618;2024-01-10T07:09:53;-1.10;92.80
39925;DHT22;25592;49.986;11.618;2024-01-10T07:12:39;-1.10;93.20
39925;DHT22;25592;49.986;11.618;2024-01-10T07:15:24;-1.10;93.10
39925;DHT22;25592;49.986;11.618;2024-01-10T07:18:10;-1.00;95.50
39925;DHT22;25592;49.986;11.618;2024-01-10T07:20:55;-1.00;94.00
39925;DHT22;25592;49.986;11.618;2024-01-10T07:23:41;-1.00;94.50
39925;DHT22;25592;49.986;11.618;2024-01-10T07:26:28;-1.00;93.80
39925;DHT22;25592;49.986;11.618;2024-01-10T07:29:13;-1.10;93.10
39925;DHT22;25592;49.986;11.618;2024-01-10T07:31:59;-1.10;93.70
39925;DHT22;25592;49.986;11.618;2024-01-10T07:34:44;-1.10;93.40
39925;DHT22;25592;49.986;11.618;2024-01-10T07:37:30;-1.10;93.50
39925;DHT22;25592;49.986;11.618;2024-01-10T07:40:17;-1.10;93.50
39925;DHT22;25592;49.986;11.618;2024-01-10T07:43:02;-1.30;92.90
39925;DHT22;25592;49.986;11.618;2024-01-10T07:45:47;-1.30;93.20
39925;DHT22;25592;49.986;11.618;2024-01-10T07:48:33;-1.20;93.30
39925;DHT22;25592;49.986;11.618;2024-01-10T07:51:18;-1.20;93.50
39925;DHT22;25592;49.986;11.618;2024-01-10T07:54:04;-1.20;93.50
39925;DHT22;25592;49.986;11.618;2024-01-10T07:56:50;-1.20;93.40
39925;DHT22;25592;49.986;11.618;2024-01-10T07:59:35;-1.10;93.60
39925;DHT22;25592;49.986;11.618;2024-01-10T08:02:21;-1.20;93.60
39925;DHT22;25592;49.986;11.618;2024-01-10T08:05:07;-1.20;93.60
39925;DHT22;25592;49.986;11.618;2024-01-10T08:07:55;-1.20;93.60
39925;DHT22;25592;49.986;11.618;2024-01-10T08:10:42;-1.10;93.60
39925;DHT22;25592;49.986;11.618;2024-01-10T08:13:27;-1.10;93.60
39925;DHT22;25592;49.986;11.618;2024-01-10T08:16:13;-1.10;93.70
39925;DHT22;25592;49.986;11.618;2024-01-10T08:18:59;-1.10;93.70
39925;DHT22;25592;49.986;11.618;2024-01-10T08:21:45;-1.10;93.80
39925;DHT22;25592;49.986;11.618;2024-01-10T08:24:30;-1.00;93.80
39925;DHT22;25592;49.986;11.618;2024-01-10T08:27:16;-1.10;93.70
39925;DHT22;25592;49.986;11.618;2024-01-10T08:30:02;-1.10;93.70
39925;DHT22;25592;49.986;11.618;2024-01-10T08:32:50;-1.00;93.70
39925;DHT22;25592;49.986;11.618;2024-01-10T08:35:35;-1.00;93.70
39925;DHT22;25592;49.986;11.618;2024-01-10T08:38:21;-1.00;93.80
39925;DHT22;25592;49.986;11.618;2024-01-10T08:41:09;-1.00;93.80
39925;DHT22;25592;49.986;11.618;2024-01-10T08:43:57;-1.00;93.80
39925;DHT22;25592;49.986;11.618;2024-01-10T08:46:42;-1.00;93.70
39925;DHT22;25592;49.986;11.618;2024-01-10T08:49:28;-1.00;93.30
39925;DHT22;25592;49.986;11.618;2024-01-10T08:52:13;-1.70;93.30
39925;DHT22;25592;49.986;11.618;2024-01-10T08:54:59;-0.90;93.10
39925;DHT22;25592;49.986;11.618;2024-01-10T08:57:44;-0.90;93.50
39925;DHT22;25592;49.986;11.618;2024-01-10T09:00:30;-0.90;93.50
39925;DHT22;25592;49.986;11.618;2024-01-10T09:03:15;-0.80;93.50
39925;DHT22;25592;49.986;11.618;2024-01-10T09:06:01;-0.80;93.50
39925;DHT22;25592;49.986;11.618;2024-01-10T09:08:55;-0.80;93.50
39925;DHT22;25592;49.986;11.618;2024-01-10T09:11:41;-0.80;93.40
39925;DHT22;25592;49.986;11.618;2024-01-10T09:14:30;-0.80;93.30
39925;DHT22;25592;49.986;11.618;2024-01-10T09:17:16;-0.70;93.10
39925;DHT22;25592;49.986;11.618;2024-01-10T09:20:01;-0.70;93.00
39925;DHT22;25592;49.986;11.618;2024-01-10T09:22:48;-0.70;93.00
39925;DHT22;25592;49.986;11.618;2024-01-10T09:25:34;-0.70;93.10
39925;DHT22;25592;49.986;11.618;2024-01-10T09:28:19;-0.60;93.10
39925;DHT22;25592;49.986;11.618;2024-01-10T09:31:05;-0.50;93.10
39925;DHT22;25592;49.986;11.618;2024-01-10T09:33:52;-0.50;93.00
39925;DHT22;25592;49.986;11.618;2024-01-10T09:36:38;-0.50;92.80
39925;DHT22;25592;49.986;11.618;2024-01-10T09:39:23;-0.40;93.00
39925;DHT22;25592;49.986;11.618;2024-01-10T09:42:08;-0.40;92.80
39925;DHT22;25592;49.986;11.618;2024-01-10T09:44:54;-0.30;93.10
39925;DHT22;25592;49.986;11.618;2024-01-10T09:47:40;-0.20;93.00
39925;DHT22;25592;49.986;11.618;2024-01-10T09:50:28;0.00;93.10
39925;DHT22;25592;49.986;11.618;2024-01-10T09:53:23;0.10;93.10
39925;DHT22;25592;49.986;11.618;2024-01-10T09:56:09;0.20;92.90
39925;DHT22;25592;49.986;11.618;2024-01-10T09:58:55;0.40;92.90
39925;DHT22;25592;49.986;11.618;2024-01-10T10:01:43;0.50;92.20
39925;DHT22;25592;49.986;11.618;2024-01-10T10:04:29;0.60;92.40
39925;DHT22;25592;49.986;11.618;2024-01-10T10:07:15;0.70;92.50
39925;DHT22;25592;49.986;11.618;2024-01-10T10:10:00;0.90;92.00
39925;DHT22;25592;49.986;11.618;2024-01-10T10:12:51;1.00;91.90
39925;DHT22;25592;49.986;11.618;2024-01-10T10:15:39;1.10;91.70
39925;DHT22;25592;49.986;11.618;2024-01-10T10:18:25;1.20;91.60
39925;DHT22;25592;49.986;11.618;2024-01-10T10:21:12;1.30;91.30
39925;DHT22;25592;49.986;11.618;2024-01-10T10:24:00;1.50;91.50
39925;DHT22;25592;49.986;11.618;2024-01-10T10:26:45;1.70;91.00
39925;DHT22;25592;49.986;11.618;2024-01-10T10:29:31;1.80;90.90
39925;DHT22;25592;49.986;11.618;2024-01-10T10:32:17;2.00;90.90
39925;DHT22;25592;49.986;11.618;2024-01-10T10:35:04;2.20;90.50
39925;DHT22;25592;49.986;11.618;2024-01-10T10:38:02;2.20;90.40
39925;DHT22;25592;49.986;11.618;2024-01-10T10:40:48;2.50;90.30
39925;DHT22;25592;49.986;11.618;2024-01-10T10:43:35;2.60;90.10
39925;DHT22;25592;49.986;11.618;2024-01-10T10:46:23;2.90;90.00
39925;DHT22;25592;49.986;11.618;2024-01-10T10:49:12;3.20;88.50
39925;DHT22;25592;49.986;11.618;2024-01-10T10:51:59;3.30;88.90
39925;DHT22;25592;49.986;11.618;2024-01-10T10:54:46;3.70;88.30
39925;DHT22;25592;49.986;11.618;2024-01-10T10:57:33;3.80;85.60
39925;DHT22;25592;49.986;11.618;2024-01-10T11:00:20;3.90;88.50
39925;DHT22;25592;49.986;11.618;2024-01-10T11:03:10;3.90;84.90
39925;DHT22;25592;49.986;11.618;2024-01-10T11:05:56;4.00;85.70
39925;DHT22;25592;49.986;11.618;2024-01-10T11:08:47;4.10;85.90
39925;DHT22;25592;49.986;11.618;2024-01-10T11:14:43;4.10;86.00
39925;DHT22;25592;49.986;11.618;2024-01-10T11:23:48;4.20;85.00
39925;DHT22;25592;49.986;11.618;2024-01-10T11:26:37;4.10;83.90
39925;DHT22;25592;49.986;11.618;2024-01-10T11:29:28;4.30;85.20
39925;DHT22;25592;49.986;11.618;2024-01-10T11:32:17;4.70;84.80
39925;DHT22;25592;49.986;11.618;2024-01-10T11:35:19;4.50;83.30
39925;DHT22;25592;49.986;11.618;2024-01-10T11:38:04;4.40;83.50
39925;DHT22;25592;49.986;11.618;2024-01-10T11:40:52;4.50;83.00
39925;DHT22;25592;49.986;11.618;2024-01-10T11:43:38;4.50;82.70
39925;DHT22;25592;49.986;11.618;2024-01-10T11:46:26;4.50;83.20
39925;DHT22;25592;49.986;11.618;2024-01-10T11:49:14;4.50;83.70
39925;DHT22;25592;49.986;11.618;2024-01-10T11:52:00;4.80;83.60
39925;DHT22;25592;49.986;11.618;2024-01-10T11:54:46;4.60;82.10
39925;DHT22;25592;49.986;11.618;2024-01-10T11:57:32;4.80;84.10
39925;DHT22;25592;49.986;11.618;2024-01-10T12:00:20;5.10;82.70
39925;DHT22;25592;49.986;11.618;2024-01-10T12:03:07;5.20;82.40
39925;DHT22;25592;49.986;11.618;2024-01-10T12:05:53;5.60;82.70
39925;DHT22;25592;49.986;11.618;2024-01-10T12:08:39;5.80;83.80
39925;DHT22;25592;49.986;11.618;2024-01-10T12:11:25;5.90;82.40
39925;DHT22;25592;49.986;11.618;2024-01-10T12:14:12;5.80;82.00
39925;DHT22;25592;49.986;11.618;2024-01-10T12:17:01;5.90;81.70
39925;DHT22;25592;49.986;11.618;2024-01-10T12:19:46;6.20;82.30
39925;DHT22;25592;49.986;11.618;2024-01-10T12:22:34;6.30;80.00
39925;DHT22;25592;49.986;11.618;2024-01-10T12:25:20;6.50;79.70
39925;DHT22;25592;49.986;11.618;2024-01-10T12:28:05;6.50;80.00
39925;DHT22;25592;49.986;11.618;2024-01-10T12:30:51;6.20;80.20
39925;DHT22;25592;49.986;11.618;2024-01-10T12:33:37;6.20;80.10
39925;DHT22;25592;49.986;11.618;2024-01-10T12:36:23;6.30;80.70
39925;DHT22;25592;49.986;11.618;2024-01-10T12:39:09;6.40;80.10
39925;DHT22;25592;49.986;11.618;2024-01-10T12:41:54;6.40;80.50
39925;DHT22;25592;49.986;11.618;2024-01-10T12:44:43;6.40;80.70
39925;DHT22;25592;49.986;11.618;2024-01-10T12:47:29;6.50;80.60
39925;DHT22;25592;49.986;11.618;2024-01-10T12:50:15;6.50;80.30
39925;DHT22;25592;49.986;11.618;2024-01-10T12:53:00;6.50;78.90
39925;DHT22;25592;49.986;11.618;2024-01-10T12:55:46;6.60;80.10
39925;DHT22;25592;49.986;11.618;2024-01-10T12:58:33;6.80;79.40
39925;DHT22;25592;49.986;11.618;2024-01-10T13:01:20;6.90;80.00
39925;DHT22;25592;49.986;11.618;2024-01-10T13:04:06;7.00;79.40
39925;DHT22;25592;49.986;11.618;2024-01-10T13:06:53;7.10;78.50
39925;DHT22;25592;49.986;11.618;2024-01-10T13:09:39;7.20;78.00
39925;DHT22;25592;49.986;11.618;2024-01-10T13:12:25;7.30;78.10
39925;DHT22;25592;49.986;11.618;2024-01-10T13:15:10;7.50;78.00
39925;DHT22;25592;49.986;11.618;2024-01-10T13:17:56;7.60;77.10
39925;DHT22;25592;49.986;11.618;2024-01-10T13:20:43;7.70;77.80
39925;DHT22;25592;49.986;11.618;2024-01-10T13:23:28;7.60;77.10
39925;DHT22;25592;49.986;11.618;2024-01-10T13:26:14;7.60;77.50
39925;DHT22;25592;49.986;11.618;2024-01-10T13:29:00;7.70;77.70
39925;DHT22;25592;49.986;11.618;2024-01-10T13:31:48;7.70;76.80
39925;DHT22;25592;49.986;11.618;2024-01-10T13:34:35;7.80;77.10
39925;DHT22;25592;49.986;11.618;2024-01-10T13:37:20;7.90;76.50
39925;DHT22;25592;49.986;11.618;2024-01-10T13:40:07;7.90;75.50
39925;DHT22;25592;49.986;11.618;2024-01-10T13:42:53;7.90;76.70
39925;DHT22;25592;49.986;11.618;2024-01-10T13:45:39;7.70;77.20
39925;DHT22;25592;49.986;11.618;2024-01-10T13:48:25;7.60;75.90
39925;DHT22;25592;49.986;11.618;2024-01-10T13:51:10;7.70;76.90
39925;DHT22;25592;49.986;11.618;2024-01-10T13:53:57;7.90;76.70
39925;DHT22;25592;49.986;11.618;2024-01-10T13:56:42;7.80;75.60
39925;DHT22;25592;49.986;11.618;2024-01-10T13:59:28;7.60;76.70
39925;DHT22;25592;49.986;11.618;2024-01-10T14:02:14;7.50;76.20
39925;DHT22;25592;49.986;11.618;2024-01-10T14:04:59;7.50;76.50
39925;DHT22;25592;49.986;11.618;2024-01-10T14:07:44;7.60;76.40
39925;DHT22;25592;49.986;11.618;2024-01-10T14:10:30;7.80;76.30
39925;DHT22;25592;49.986;11.618;2024-01-10T14:13:15;7.80;75.80
39925;DHT22;25592;49.986;11.618;2024-01-10T14:16:01;7.90;76.40
39925;DHT22;25592;49.986;11.618;2024-01-10T14:18:46;8.10;75.60
39925;DHT22;25592;49.986;11.618;2024-01-10T14:21:33;8.10;75.20
39925;DHT22;25592;49.986;11.618;2024-01-10T14:24:19;8.10;75.40
39925;DHT22;25592;49.986;11.618;2024-01-10T14:27:05;8.20;75.60
39925;DHT22;25592;49.986;11.618;2024-01-10T14:29:50;8.20;76.10
39925;DHT22;25592;49.986;11.618;2024-01-10T14:32:36;8.20;76.60
39925;DHT22;25592;49.986;11.618;2024-01-10T14:35:21;8.30;75.20
39925;DHT22;25592;49.986;11.618;2024-01-10T14:38:07;8.20;75.60
39925;DHT22;25592;49.986;11.618;2024-01-10T14:40:53;8.20;75.70
39925;DHT22;25592;49.986;11.618;2024-01-10T14:43:39;8.00;76.10
39925;DHT22;25592;49.986;11.618;2024-01-10T14:46:24;8.10;76.40
39925;DHT22;25592;49.986;11.618;2024-01-10T14:49:10;8.00;76.00
39925;DHT22;25592;49.986;11.618;2024-01-10T14:51:55;8.00;76.20
39925;DHT22;25592;49.986;11.618;2024-01-10T14:54:41;7.90;75.80
39925;DHT22;25592;49.986;11.618;2024-01-10T14:57:27;7.80;76.80
39925;DHT22;25592;49.986;11.618;2024-01-10T15:00:12;7.70;76.80
39925;DHT22;25592;49.986;11.618;2024-01-10T15:02:59;7.50;76.90
39925;DHT22;25592;49.986;11.618;2024-01-10T15:05:50;7.40;77.40
39925;DHT22;25592;49.986;11.618;2024-01-10T15:08:36;7.00;77.70
39925;DHT22;25592;49.986;11.618;2024-01-10T15:11:22;6.80;77.90
39925;DHT22;25592;49.986;11.618;2024-01-10T15:14:08;6.60;78.70
39925;DHT22;25592;49.986;11.618;2024-01-10T15:16:54;6.40;79.90
39925;DHT22;25592;49.986;11.618;2024-01-10T15:19:41;6.20;80.20
39925;DHT22;25592;49.986;11.618;2024-01-10T15:22:27;6.00;81.00
39925;DHT22;25592;49.986;11.618;2024-01-10T15:25:13;5.80;82.10
39925;DHT22;25592;49.986;11.618;2024-01-10T15:27:58;5.60;82.20
39925;DHT22;25592;49.986;11.618;2024-01-10T15:30:45;5.50;82.60
39925;DHT22;25592;49.986;11.618;2024-01-10T15:33:34;5.40;83.20
39925;DHT22;25592;49.986;11.618;2024-01-10T15:36:19;5.20;83.70
39925;DHT22;25592;49.986;11.618;2024-01-10T15:39:05;5.10;83.80
39925;DHT22;25592;49.986;11.618;2024-01-10T15:41:51;4.90;83.90
39925;DHT22;25592;49.986;11.618;2024-01-10T15:44:40;4.80;84.10
39925;DHT22;25592;49.986;11.618;2024-01-10T15:47:27;4.60;84.70
39925;DHT22;25592;49.986;11.618;2024-01-10T15:50:12;4.50;84.20
39925;DHT22;25592;49.986;11.618;2024-01-10T15:52:58;4.40;84.10
39925;DHT22;25592;49.986;11.618;2024-01-10T15:55:44;4.30;84.30
39925;DHT22;25592;49.986;11.618;2024-01-10T15:58:29;4.20;84.30
39925;DHT22;25592;49.986;11.618;2024-01-10T16:01:15;4.20;84.30
39925;DHT22;25592;49.986;11.618;2024-01-10T16:04:00;4.10;85.00
39925;DHT22;25592;49.986;11.618;2024-01-10T16:06:47;4.00;85.20
39925;DHT22;25592;49.986;11.618;2024-01-10T16:09:32;4.00;85.60
39925;DHT22;25592;49.986;11.618;2024-01-10T16:12:19;3.90;85.40
39925;DHT22;25592;49.986;11.618;2024-01-10T16:15:05;3.80;84.50
39925;DHT22;25592;49.986;11.618;2024-01-10T16:17:51;3.70;84.80
39925;DHT22;25592;49.986;11.618;2024-01-10T16:20:36;3.70;85.40
39925;DHT22;25592;49.986;11.618;2024-01-10T16:23:23;3.60;86.30
39925;DHT22;25592;49.986;11.618;2024-01-10T16:26:09;3.60;85.90
39925;DHT22;25592;49.986;11.618;2024-01-10T16:28:56;3.60;85.60
39925;DHT22;25592;49.986;11.618;2024-01-10T16:31:41;3.50;86.50
39925;DHT22;25592;49.986;11.618;2024-01-10T16:34:27;3.40;87.00
39925;DHT22;25592;49.986;11.618;2024-01-10T16:37:14;3.40;86.80
39925;DHT22;25592;49.986;11.618;2024-01-10T16:39:59;3.30;86.90
39925;DHT22;25592;49.986;11.618;2024-01-10T16:42:45;3.30;86.70
39925;DHT22;25592;49.986;11.618;2024-01-10T16:45:30;3.20;86.50
39925;DHT22;25592;49.986;11.618;2024-01-10T16:48:19;3.10;85.10
39925;DHT22;25592;49.986;11.618;2024-01-10T16:51:04;3.10;86.10
39925;DHT22;25592;49.986;11.618;2024-01-10T16:53:50;3.10;87.10
39925;DHT22;25592;49.986;11.618;2024-01-10T16:56:35;3.00;86.20
39925;DHT22;25592;49.986;11.618;2024-01-10T16:59:22;3.00;86.40
39925;DHT22;25592;49.986;11.618;2024-01-10T17:02:08;2.90;86.10
39925;DHT22;25592;49.986;11.618;2024-01-10T17:04:54;2.90;86.40
39925;DHT22;25592;49.986;11.618;2024-01-10T17:07:39;2.90;87.10
39925;DHT22;25592;49.986;11.618;2024-01-10T17:10:25;2.80;86.00
39925;DHT22;25592;49.986;11.618;2024-01-10T17:13:11;2.70;86.50
39925;DHT22;25592;49.986;11.618;2024-01-10T17:15:56;2.80;95.20
39925;DHT22;25592;49.986;11.618;2024-01-10T17:18:42;3.10;90.30
39925;DHT22;25592;49.986;11.618;2024-01-10T17:21:27;3.20;90.50
39925;DHT22;25592;49.986;11.618;2024-01-10T17:24:13;3.10;89.40
39925;DHT22;25592;49.986;11.618;2024-01-10T17:26:59;2.90;88.20
39925;DHT22;25592;49.986;11.618;2024-01-10T17:29:44;2.90;88.80